Time;durP1;ratioP1;P1;durP2;ratioP2;P2;SDS_P1;SDS_P2;PMS_P1;PMS_P2;Temp;Humidity;BMP_temperature;BMP_pressure;BME280_temperature;BME280_humidity;BME280_pressure;Samples;Min_cycle;Max_cycle;Signal;HPM_P1;HPM_P2
2023/06/20 00:01:05;;;;;;;18.23;14.70;;;;;;;21.21;69.94;101087.53;4998166;28;20467;-55
2023/06/20 00:03:30;;;;;;;18.67;15.38;;;;;;;21.16;69.41;101081.81;4998603;28;20329;-54
2023/06/20 00:05:55;;;;;;;16.27;14.10;;;;;;;21.12;70.84;101081.34;5004769;28;20026;-54
2023/06/20 00:08:20;;;;;;;18.77;14.45;;;;;;;21.12;70.17;101088.63;5003158;28;20772;-53
2023/06/20 00:10:46;;;;;;;15.23;13.57;;;;;;;21.13;69.21;101080.31;4999887;28;20518;-52
2023/06/20 00:13:11;;;;;;;15.50;13.40;;;;;;;21.13;70.42;101084.88;5002289;28;20042;-51
2023/06/20 00:15:36;;;;;;;18.15;13.98;;;;;;;21.10;70.77;101086.09;5001218;28;20334;-52
2023/06/20 00:18:02;;;;;;;14.82;13.00;;;;;;;21.08;70.42;101080.00;5003119;28;20121;-52
2023/06/20 00:20:29;;;;;;;18.23;13.43;;;;;;;21.06;70.16;101077.50;4998877;28;20061;-52
2023/06/20 00:22:54;;;;;;;16.38;12.98;;;;;;;21.05;70.16;101078.53;5001172;28;20041;-53
2023/06/20 00:25:20;;;;;;;14.77;12.90;;;;;;;21.02;70.04;101070.78;4998386;28;20027;-51
2023/06/20 00:27:45;;;;;;;16.63;13.02;;;;;;;20.97;70.15;101069.66;4997456;28;20104;-55
2023/06/20 00:30:11;;;;;;;16.45;13.02;;;;;;;20.92;70.56;101072.91;4999185;28;20446;-53
2023/06/20 00:32:36;;;;;;;16.13;12.82;;;;;;;20.91;70.69;101075.78;4997306;28;20132;-56
2023/06/20 00:35:02;;;;;;;16.47;12.13;;;;;;;20.88;70.74;101072.44;4997823;28;20022;-53
2023/06/20 00:37:28;;;;;;;17.40;12.18;;;;;;;20.88;70.31;101075.13;5000868;28;20292;-52
2023/06/20 00:39:53;;;;;;;14.15;12.65;;;;;;;20.85;70.73;101074.63;4995470;28;20452;-54
2023/06/20 00:42:25;;;;;;;15.43;13.25;;;;;;;20.83;70.89;101077.53;4998057;28;20117;-53
2023/06/20 00:44:51;;;;;;;14.63;12.60;;;;;;;20.82;70.56;101069.59;4998999;28;20034;-52
2023/06/20 00:47:17;;;;;;;19.27;12.75;;;;;;;20.81;70.63;101079.53;4998862;28;20057;-55
2023/06/20 00:49:48;;;;;;;14.05;12.55;;;;;;;20.81;70.85;101076.00;4996386;28;20121;-54
2023/06/20 00:52:17;;;;;;;14.73;12.82;;;;;;;20.81;70.48;101062.50;4997130;28;20037;-53
2023/06/20 00:54:47;;;;;;;18.42;13.20;;;;;;;20.79;70.93;101070.78;4996639;28;20030;-54
2023/06/20 00:57:17;;;;;;;18.50;12.70;;;;;;;20.76;71.24;101065.75;5000536;28;20030;-51
2023/06/20 00:59:47;;;;;;;16.38;13.32;;;;;;;20.77;70.35;101069.31;4997113;28;20030;-53
2023/06/20 01:02:14;;;;;;;17.40;13.10;;;;;;;20.74;70.71;101057.00;4996826;28;20365;-53
2023/06/20 01:04:41;;;;;;;14.85;13.35;;;;;;;20.72;71.26;101058.19;4995720;28;20034;-53
2023/06/20 01:07:14;;;;;;;14.68;13.05;;;;;;;20.71;71.22;101060.03;4996780;28;20424;-54
2023/06/20 01:10:08;;;;;;;14.05;11.77;;;;;;;20.75;70.14;101055.97;4996710;28;20026;-54
2023/06/20 01:12:45;;;;;;;18.48;13.75;;;;;;;20.72;70.87;101053.63;4997483;28;20018;-51
2023/06/20 01:15:23;;;;;;;18.42;12.98;;;;;;;20.69;70.77;101051.28;4998449;28;20164;-53
2023/06/20 01:18:08;;;;;;;17.27;12.95;;;;;;;20.69;70.26;101054.00;4996679;28;20014;-53
2023/06/20 01:20:43;;;;;;;16.65;12.57;;;;;;;20.65;71.05;101049.94;4997339;28;20014;-54
2023/06/20 01:23:13;;;;;;;14.48;12.98;;;;;;;20.59;70.86;101037.16;4997188;28;20030;-54
2023/06/20 01:25:48;;;;;;;15.93;12.55;;;;;;;20.63;70.63;101046.59;4994733;28;20064;-53
2023/06/20 01:28:38;;;;;;;18.13;13.55;;;;;;;20.64;69.84;101049.13;4996098;28;20042;-54
2023/06/20 01:31:15;;;;;;;15.30;12.98;;;;;;;20.60;70.44;101042.38;5001889;28;20060;-52
2023/06/20 01:34:07;;;;;;;16.17;12.73;;;;;;;20.63;69.94;101043.91;4994649;28;20027;-53
2023/06/20 01:36:36;;;;;;;18.23;13.52;;;;;;;20.57;70.86;101036.47;4999510;28;20058;-52
2023/06/20 01:39:07;;;;;;;15.43;13.07;;;;;;;20.57;70.46;101037.34;4992364;28;20030;-52
2023/06/20 01:41:36;;;;;;;14.85;13.35;;;;;;;20.56;70.53;101045.63;4998551;28;20036;-55
2023/06/20 01:44:07;;;;;;;17.95;12.93;;;;;;;20.57;70.70;101036.47;4995841;28;20081;-54
2023/06/20 01:46:33;;;;;;;17.20;12.95;;;;;;;20.55;70.68;101031.28;5000018;28;20026;-52
2023/06/20 01:49:01;;;;;;;14.60;12.73;;;;;;;20.54;70.47;101017.97;5000669;28;20034;-53
2023/06/20 01:51:29;;;;;;;14.98;13.07;;;;;;;20.51;70.38;101017.28;5001083;28;20022;-51
2023/06/20 01:53:55;;;;;;;15.80;13.30;;;;;;;20.50;70.69;101022.88;4996361;28;20379;-52
2023/06/20 01:56:23;;;;;;;16.17;12.98;;;;;;;20.48;70.36;101019.50;4996554;28;20515;-51
2023/06/20 01:58:49;;;;;;;17.45;13.43;;;;;;;20.47;70.30;101017.84;4996780;28;20446;-52
2023/06/20 02:01:16;;;;;;;19.15;13.73;;;;;;;20.47;70.30;101021.38;5002560;28;20486;-52
2023/06/20 02:03:42;;;;;;;16.95;13.77;;;;;;;20.45;70.02;101015.31;5006800;28;20376;-53
2023/06/20 02:06:09;;;;;;;14.57;13.05;;;;;;;20.46;70.45;101018.84;5006645;28;20026;-53
2023/06/20 02:08:37;;;;;;;14.40;12.82;;;;;;;20.46;70.05;101018.84;4998746;28;20068;-52
2023/06/20 02:11:04;;;;;;;14.30;12.77;;;;;;;20.40;69.94;101008.78;5006645;28;20022;-53
2023/06/20 02:13:30;;;;;;;15.65;13.48;;;;;;;20.43;69.97;101011.94;5001831;28;20065;-52
2023/06/20 02:15:57;;;;;;;14.75;13.00;;;;;;;20.43;69.76;101011.13;5003639;28;20519;-53
2023/06/20 02:18:23;;;;;;;16.33;13.18;;;;;;;20.46;69.64;101005.38;5004276;28;20033;-54
2023/06/20 02:20:51;;;;;;;15.27;13.23;;;;;;;20.43;69.71;101011.13;5000084;28;20026;-53
2023/06/20 02:23:26;;;;;;;18.30;13.90;;;;;;;20.43;69.23;101014.66;4999818;28;20463;-53
2023/06/20 02:25:55;;;;;;;16.88;13.27;;;;;;;20.42;69.63;101009.47;5003457;28;20526;-54
2023/06/20 02:28:21;;;;;;;16.15;12.95;;;;;;;20.42;70.34;101009.47;5004438;28;20022;-52
2023/06/20 02:30:48;;;;;;;16.10;12.88;;;;;;;20.42;70.65;101012.97;5002748;28;20042;-52
2023/06/20 02:33:14;;;;;;;14.40;12.50;;;;;;;20.41;70.57;101011.28;5003079;28;20043;-54
2023/06/20 02:35:41;;;;;;;19.92;13.60;;;;;;;20.41;70.25;101015.84;5000096;28;20034;-52
2023/06/20 02:38:09;;;;;;;18.00;13.55;;;;;;;20.39;70.21;101018.72;4999767;28;20118;-52
2023/06/20 02:40:36;;;;;;;18.50;13.40;;;;;;;20.37;70.73;101014.50;5001696;28;20042;-52
2023/06/20 02:43:01;;;;;;;16.33;13.68;;;;;;;20.38;70.11;101019.75;5000250;28;20371;-52
2023/06/20 02:45:27;;;;;;;17.53;13.43;;;;;;;20.38;70.41;101014.34;5002344;28;20038;-53
2023/06/20 02:48:19;;;;;;;17.55;13.52;;;;;;;20.34;69.95;101013.88;5001132;28;20309;-52
2023/06/20 02:50:59;;;;;;;15.88;13.40;;;;;;;20.33;70.07;101008.63;5002499;28;20026;-52
2023/06/20 02:53:40;;;;;;;15.57;12.80;;;;;;;20.35;69.03;101009.31;4996577;28;20036;-52
2023/06/20 02:56:10;;;;;;;14.85;12.52;;;;;;;20.32;69.79;101010.50;4997307;28;20038;-53
2023/06/20 02:58:37;;;;;;;16.05;11.82;;;;;;;20.32;68.76;101012.38;5000554;28;20077;-53
2023/06/20 03:01:03;;;;;;;17.40;12.27;;;;;;;20.30;69.81;101014.38;4993981;28;20038;-54
2023/06/20 03:03:44;;;;;;;14.50;12.52;;;;;;;20.26;69.21;101008.50;4998553;28;20460;-55
2023/06/20 03:06:12;;;;;;;15.50;12.25;;;;;;;20.24;68.89;100998.94;4998479;28;20077;-52
2023/06/20 03:08:42;;;;;;;13.68;12.05;;;;;;;20.24;68.97;100997.06;5000892;28;20069;-51
2023/06/20 03:11:08;;;;;;;14.05;11.95;;;;;;;20.23;68.91;100999.94;5000069;28;20422;-53
2023/06/20 03:13:33;;;;;;;15.57;11.70;;;;;;;20.20;68.78;101006.53;4995539;28;20027;-52
2023/06/20 03:15:59;;;;;;;14.82;12.60;;;;;;;20.19;68.39;100996.75;5001931;28;20026;-51
2023/06/20 03:18:24;;;;;;;15.32;11.38;;;;;;;20.17;69.11;100995.25;4995923;28;20085;-52
2023/06/20 03:20:50;;;;;;;12.93;11.38;;;;;;;20.14;68.86;100991.06;5001789;28;20131;-53
2023/06/20 03:23:16;;;;;;;12.90;11.60;;;;;;;20.14;69.23;100996.47;4998231;28;20030;-52
2023/06/20 03:25:42;;;;;;;11.88;10.68;;;;;;;20.13;68.74;101002.84;4997149;28;20483;-52
2023/06/20 03:28:07;;;;;;;13.30;11.40;;;;;;;20.08;69.04;101010.63;5000587;28;20081;-52
2023/06/20 03:30:33;;;;;;;16.40;11.50;;;;;;;20.09;68.80;101007.75;4995175;28;20022;-54
2023/06/20 03:32:58;;;;;;;14.05;11.48;;;;;;;20.07;68.95;101004.41;4996872;28;20026;-51
2023/06/20 03:35:24;;;;;;;13.87;12.37;;;;;;;20.09;69.13;101009.63;5001572;28;20041;-51
2023/06/20 03:37:49;;;;;;;13.65;12.02;;;;;;;20.06;69.00;101013.50;4995608;28;20269;-52
2023/06/20 03:40:15;;;;;;;13.65;11.25;;;;;;;20.05;69.15;101019.94;5002105;28;20472;-52
2023/06/20 03:42:41;;;;;;;12.00;10.77;;;;;;;20.04;69.98;101026.31;4996071;28;20041;-52
2023/06/20 03:45:07;;;;;;;13.38;11.20;;;;;;;20.04;69.54;101029.03;4998973;28;20106;-54
2023/06/20 03:47:32;;;;;;;13.98;11.40;;;;;;;20.00;70.37;101035.78;5003569;28;20026;-52
2023/06/20 03:49:58;;;;;;;12.60;11.27;;;;;;;20.01;70.49;101044.72;4998226;28;20464;-52
2023/06/20 03:52:23;;;;;;;13.27;12.00;;;;;;;20.00;70.08;101048.41;5001047;28;20026;-51
2023/06/20 03:54:48;;;;;;;15.63;12.07;;;;;;;20.02;70.07;101051.78;4995320;28;20019;-52
2023/06/20 03:57:14;;;;;;;15.80;12.73;;;;;;;19.98;69.81;101050.44;5001519;28;20022;-54
2023/06/20 03:59:39;;;;;;;14.75;11.60;;;;;;;19.97;70.60;101049.63;5005068;28;20276;-53
2023/06/20 04:02:04;;;;;;;15.50;12.18;;;;;;;19.95;70.72;101054.31;5001539;28;20026;-52
2023/06/20 04:04:30;;;;;;;14.65;12.02;;;;;;;19.96;69.94;101056.00;4997455;28;20042;-55
2023/06/20 04:06:55;;;;;;;13.98;12.10;;;;;;;19.96;70.68;101054.16;5004230;28;20058;-52
2023/06/20 04:09:25;;;;;;;13.32;11.85;;;;;;;19.95;71.22;101059.72;5000089;28;20054;-54
2023/06/20 04:11:50;;;;;;;14.57;12.32;;;;;;;19.93;71.06;101046.44;5000954;28;20026;-52
2023/06/20 04:14:15;;;;;;;14.63;11.90;;;;;;;19.95;70.66;101041.72;5002872;28;20033;-52
2023/06/20 04:16:41;;;;;;;11.60;10.40;;;;;;;19.98;71.42;101035.09;5001138;28;20021;-52
2023/06/20 04:19:06;;;;;;;13.13;11.43;;;;;;;19.95;71.86;101036.31;4996631;28;20293;-52
2023/06/20 04:21:31;;;;;;;13.43;11.73;;;;;;;19.96;70.99;101037.16;5002452;28;20341;-54
2023/06/20 04:23:57;;;;;;;16.03;11.10;;;;;;;19.98;71.53;101029.72;4997633;28;20014;-52
2023/06/20 04:26:23;;;;;;;13.07;11.07;;;;;;;19.96;72.68;101032.59;5001746;28;20300;-54
2023/06/20 04:28:48;;;;;;;13.25;11.85;;;;;;;19.98;72.54;101018.09;4998287;28;20096;-52
2023/06/20 04:31:14;;;;;;;13.55;12.25;;;;;;;19.96;73.08;101015.56;5000435;28;20475;-53
2023/06/20 04:33:43;;;;;;;14.30;11.82;;;;;;;20.02;73.23;101020.28;5002649;28;20022;-54
2023/06/20 04:36:13;;;;;;;;;;;;;;;20.13;70.48;101019.91;4999764;28;20037;-53
2023/06/20 04:38:44;;;;;;;15.13;12.40;;;;;;;20.10;73.54;101030.16;5002217;28;20286;-53
2023/06/20 04:41:10;;;;;;;15.18;11.27;;;;;;;20.15;73.82;101019.69;5001825;28;20103;-52
2023/06/20 04:43:36;;;;;;;16.27;13.15;;;;;;;20.18;73.00;101021.22;4992833;28;20058;-53
2023/06/20 04:46:04;;;;;;;14.38;12.63;;;;;;;20.21;72.66;101015.47;5004160;28;20053;-51
2023/06/20 04:48:35;;;;;;;19.50;13.70;;;;;;;20.25;71.84;101011.38;4996018;28;20077;-54
2023/06/20 04:51:01;;;;;;;16.55;13.90;;;;;;;20.28;72.66;101011.03;4999847;28;20121;-52
2023/06/20 04:53:27;;;;;;;15.98;13.48;;;;;;;20.35;72.96;101001.22;5001917;28;20479;-55
2023/06/20 04:55:53;;;;;;;16.27;13.27;;;;;;;20.43;73.58;101009.25;5000070;28;20022;-52
2023/06/20 04:58:18;;;;;;;16.30;12.95;;;;;;;20.54;72.84;101005.31;4999420;28;20038;-52
2023/06/20 05:00:43;;;;;;;15.23;12.60;;;;;;;20.66;72.48;101009.28;5000351;28;20022;-51
2023/06/20 05:03:09;;;;;;;13.95;12.38;;;;;;;20.77;72.15;100999.94;5000511;28;20379;-52
2023/06/20 05:05:34;;;;;;;14.38;12.85;;;;;;;20.84;72.12;100995.50;5002713;28;20091;-53
2023/06/20 05:07:59;;;;;;;18.00;12.57;;;;;;;20.98;72.01;100987.63;4991870;28;20379;-52
2023/06/20 05:10:25;;;;;;;15.00;11.95;;;;;;;21.11;71.92;100985.13;4998954;28;20304;-54
2023/06/20 05:12:50;;;;;;;13.23;11.27;;;;;;;21.24;71.66;100982.63;5004349;28;20038;-52
2023/06/20 05:15:16;;;;;;;13.40;10.10;;;;;;;21.43;71.85;100978.56;5003108;28;20030;-52
2023/06/20 05:17:41;;;;;;;13.82;10.02;;;;;;;21.62;72.21;100974.50;5004542;28;20280;-54
2023/06/20 05:20:07;;;;;;;10.02;8.77;;;;;;;21.75;71.23;100972.97;5001653;28;20373;-53
2023/06/20 05:22:33;;;;;;;10.30;8.63;;;;;;;21.93;70.52;100975.28;5004864;28;20073;-52
2023/06/20 05:24:59;;;;;;;9.45;7.95;;;;;;;22.05;70.98;100972.94;5002856;28;20053;-52
2023/06/20 05:27:24;;;;;;;8.35;7.10;;;;;;;22.20;70.68;100968.34;5002967;28;20565;-55
2023/06/20 05:29:50;;;;;;;12.60;7.22;;;;;;;22.36;70.58;100969.97;5004253;28;20526;-52
2023/06/20 05:32:15;;;;;;;6.70;6.03;;;;;;;22.55;70.35;100963.09;5003634;28;20411;-52
2023/06/20 05:34:40;;;;;;;8.30;5.77;;;;;;;22.76;70.24;100958.69;5001235;28;20467;-54
2023/06/20 05:37:05;;;;;;;8.47;4.87;;;;;;;22.95;69.54;100960.75;5005852;28;20295;-53
2023/06/20 05:39:31;;;;;;;6.23;4.90;;;;;;;23.19;69.17;100959.47;5002499;28;20284;-54
2023/06/20 05:41:56;;;;;;;5.87;4.80;;;;;;;23.38;68.02;100960.66;5004316;28;20311;-53
2023/06/20 05:44:22;;;;;;;5.65;4.65;;;;;;;23.53;67.34;100954.25;5001800;28;20804;-55
2023/06/20 05:46:47;;;;;;;5.75;4.60;;;;;;;23.77;66.67;100955.63;4999316;28;20525;-53
2023/06/20 05:49:14;;;;;;;5.40;4.70;;;;;;;23.79;65.48;100957.09;5000287;28;20486;-55
2023/06/20 05:51:40;;;;;;;6.13;4.30;;;;;;;23.83;66.03;100957.53;5001024;28;20030;-51
2023/06/20 05:54:07;;;;;;;5.95;4.53;;;;;;;23.95;65.94;100964.06;5002687;28;20042;-52
2023/06/20 05:56:32;;;;;;;9.30;4.97;;;;;;;24.07;64.19;100967.03;4997286;28;20026;-53
2023/06/20 05:58:58;;;;;;;6.88;4.35;;;;;;;24.15;64.13;100980.41;4997568;28;20163;-51
2023/06/20 06:01:23;;;;;;;5.97;4.50;;;;;;;24.28;64.17;100979.63;4992646;28;20034;-53
2023/06/20 06:03:48;;;;;;;5.00;4.38;;;;;;;24.45;63.63;100980.06;4989709;28;20430;-53
2023/06/20 06:06:14;;;;;;;5.75;4.88;;;;;;;24.48;63.09;100987.81;5008510;28;20042;-52
2023/06/20 06:08:40;;;;;;;8.85;5.10;;;;;;;24.41;63.27;100986.94;4997678;28;20038;-52
2023/06/20 06:11:07;;;;;;;7.78;4.55;;;;;;;24.53;63.26;100989.88;4998400;28;20046;-52
2023/06/20 06:13:32;;;;;;;6.50;4.55;;;;;;;24.39;63.34;100986.31;4997617;28;20041;-55
2023/06/20 06:15:58;;;;;;;6.35;4.50;;;;;;;24.42;63.34;100987.81;4999335;28;20041;-52
2023/06/20 06:18:23;;;;;;;5.65;4.75;;;;;;;24.43;63.64;100974.03;4999051;28;20027;-53
2023/06/20 06:20:48;;;;;;;9.10;4.95;;;;;;;24.56;63.34;100982.22;4996742;28;20125;-51
2023/06/20 06:23:13;;;;;;;8.53;4.40;;;;;;;24.67;62.92;100974.50;4999412;28;20037;-53
2023/06/20 06:25:39;;;;;;;6.68;5.07;;;;;;;24.85;62.33;100971.16;4995828;28;20675;-51
2023/06/20 06:28:04;;;;;;;6.88;4.63;;;;;;;25.16;61.51;100969.66;4988865;28;20023;-53
2023/06/20 06:30:32;;;;;;;5.30;4.80;;;;;;;25.26;61.76;100980.94;5001564;28;20104;-52
2023/06/20 06:32:58;;;;;;;5.68;4.45;;;;;;;25.51;60.78;100975.69;4995754;28;20360;-55
2023/06/20 06:35:23;;;;;;;6.78;5.05;;;;;;;25.75;59.93;100976.06;4998598;28;20132;-52
2023/06/20 06:37:49;;;;;;;5.40;4.88;;;;;;;25.96;59.19;100983.09;4996044;28;20099;-55
2023/06/20 06:40:14;;;;;;;7.40;4.72;;;;;;;26.18;58.56;100983.59;4994014;28;20046;-55
2023/06/20 06:42:39;;;;;;;8.00;4.40;;;;;;;26.27;57.74;100976.88;4999062;28;20027;-51
2023/06/20 06:45:06;;;;;;;7.43;4.38;;;;;;;26.37;57.22;100974.50;4994173;28;20687;-56
2023/06/20 06:47:31;;;;;;;6.05;4.30;;;;;;;26.60;57.63;100964.91;4999134;28;20030;-52
2023/06/20 06:49:56;;;;;;;5.15;4.30;;;;;;;26.85;56.65;100975.84;5002088;28;20120;-52
2023/06/20 06:52:22;;;;;;;4.88;4.07;;;;;;;26.96;55.34;100974.28;4996089;28;20018;-52
2023/06/20 06:54:47;;;;;;;5.85;4.65;;;;;;;27.00;54.86;100980.97;4996756;28;20492;-51
2023/06/20 06:57:13;;;;;;;5.60;4.45;;;;;;;27.04;55.39;100976.72;4996887;28;20163;-51
2023/06/20 06:59:38;;;;;;;11.30;4.63;;;;;;;27.16;54.28;100978.72;4996066;28;20032;-53
2023/06/20 07:02:05;;;;;;;7.27;4.53;;;;;;;27.25;54.00;100977.38;5001644;28;20026;-53
2023/06/20 07:04:30;;;;;;;6.80;4.28;;;;;;;27.58;53.91;100978.94;4983429;28;20309;-53
2023/06/20 07:06:55;;;;;;;6.97;4.75;;;;;;;27.60;53.17;100969.47;4996045;28;20506;-52
2023/06/20 07:09:21;;;;;;;6.40;5.00;;;;;;;27.79;52.17;100964.81;5002654;28;20026;-54
2023/06/20 07:11:46;;;;;;;7.53;5.27;;;;;;;28.05;51.85;100966.41;5001456;28;20278;-53
2023/06/20 07:14:11;;;;;;;6.20;4.90;;;;;;;28.13;51.55;100967.16;5000628;28;20283;-52
2023/06/20 07:16:36;;;;;;;7.43;5.20;;;;;;;28.15;51.55;100962.31;4982555;28;20484;-51
2023/06/20 07:19:02;;;;;;;6.37;5.30;;;;;;;28.49;50.70;100951.72;5003878;28;20336;-51
2023/06/20 07:21:27;;;;;;;7.40;5.13;;;;;;;28.75;50.23;100948.56;5000848;28;20299;-52
2023/06/20 07:23:52;;;;;;;7.87;5.47;;;;;;;28.82;48.98;100958.56;4999298;28;20293;-51
2023/06/20 07:26:18;;;;;;;6.10;5.30;;;;;;;28.90;48.61;100948.09;4996147;28;20841;-51
2023/06/20 07:28:43;;;;;;;9.60;6.13;;;;;;;29.01;48.13;100948.34;5002060;28;20153;-53
2023/06/20 07:31:15;;;;;;;5.70;5.10;;;;;;;29.08;48.69;100949.06;4998857;28;20097;-51
2023/06/20 07:33:40;;;;;;;7.03;5.68;;;;;;;29.08;48.00;100938.97;4999832;28;20814;-51
2023/06/20 07:36:07;;;;;;;8.23;6.57;;;;;;;29.18;47.47;100940.28;5001757;28;20062;-52
2023/06/20 07:38:32;;;;;;;9.63;4.85;;;;;;;29.25;47.31;100933.63;5001487;28;20120;-52
2023/06/20 07:40:59;;;;;;;13.23;5.57;;;;;;;29.41;46.23;100940.25;5005191;28;20444;-52
2023/06/20 07:43:24;;;;;;;11.10;4.95;;;;;;;29.70;46.13;100938.38;5000407;28;20769;-51
2023/06/20 07:45:50;;;;;;;10.93;4.82;;;;;;;30.00;46.03;100942.84;4996868;28;20057;-51
2023/06/20 07:48:15;;;;;;;7.25;5.30;;;;;;;30.21;45.00;100945.94;5002537;28;20062;-52
2023/06/20 07:50:41;;;;;;;5.43;4.88;;;;;;;30.38;45.34;100954.25;5000368;28;20034;-53
2023/06/20 07:53:06;;;;;;;8.60;5.30;;;;;;;30.39;44.64;100961.38;4999241;28;20027;-56
2023/06/20 07:55:31;;;;;;;7.22;5.00;;;;;;;30.30;45.93;100960.91;5002202;28;20029;-54
2023/06/20 07:57:57;;;;;;;5.83;5.30;;;;;;;30.46;45.38;100962.06;4998879;28;20026;-53
2023/06/20 08:00:24;;;;;;;7.85;4.60;;;;;;;30.56;45.46;100958.63;5003629;28;20277;-57
2023/06/20 08:02:50;;;;;;;5.07;4.57;;;;;;;30.62;44.46;100957.66;4993829;28;20033;-55
2023/06/20 08:05:15;;;;;;;5.30;4.32;;;;;;;30.51;45.50;100959.41;4992710;28;20034;-55
2023/06/20 08:07:40;;;;;;;5.77;4.10;;;;;;;30.65;44.74;100945.38;4997826;28;20021;-56
2023/06/20 08:10:07;;;;;;;3.97;3.67;;;;;;;30.56;44.57;100936.72;4997451;28;20269;-54
2023/06/20 08:12:33;;;;;;;5.05;4.60;;;;;;;30.65;45.65;100942.63;4999815;28;20293;-55
2023/06/20 08:14:58;;;;;;;6.95;4.90;;;;;;;30.77;44.58;100941.44;5001409;28;20498;-56
2023/06/20 08:17:23;;;;;;;5.90;4.50;;;;;;;30.77;43.83;100943.38;4997899;28;20113;-55
2023/06/20 08:19:49;;;;;;;6.10;4.90;;;;;;;30.57;44.97;100941.13;5001230;28;20460;-56
2023/06/20 08:22:14;;;;;;;7.80;4.50;;;;;;;30.75;44.06;100938.13;4996474;28;20288;-56
2023/06/20 08:24:39;;;;;;;7.77;3.97;;;;;;;30.74;44.79;100935.63;5001878;28;20537;-53
2023/06/20 08:27:05;;;;;;;4.80;4.20;;;;;;;30.87;44.27;100938.03;4996496;28;20037;-55
2023/06/20 08:29:30;;;;;;;7.85;4.53;;;;;;;31.18;43.43;100947.56;5003990;28;20089;-55
2023/06/20 08:31:55;;;;;;;5.03;4.20;;;;;;;31.05;42.38;100950.69;4965296;28;20185;-56
2023/06/20 08:34:21;;;;;;;5.60;3.27;;;;;;;31.19;42.28;100945.66;4999631;28;20105;-56
2023/06/20 08:36:46;;;;;;;4.77;3.20;;;;;;;31.48;42.14;100940.84;4996661;28;20767;-55
2023/06/20 08:39:12;;;;;;;5.13;3.37;;;;;;;31.67;41.23;100941.38;4999699;28;20308;-54
2023/06/20 08:41:37;;;;;;;4.43;3.90;;;;;;;31.84;41.29;100948.69;4998475;28;20379;-53
2023/06/20 08:44:03;;;;;;;4.45;3.30;;;;;;;32.02;40.63;100945.59;4996108;28;20033;-55
2023/06/20 08:46:28;;;;;;;4.43;4.03;;;;;;;32.13;40.06;100937.50;4998099;28;20475;-56
2023/06/20 08:48:54;;;;;;;3.78;3.47;;;;;;;32.26;39.82;100943.41;4999743;28;20030;-54
2023/06/20 08:51:22;;;;;;;4.75;3.40;;;;;;;32.25;39.71;100946.41;4997058;28;20110;-52
2023/06/20 08:53:49;;;;;;;3.33;3.03;;;;;;;32.23;40.00;100943.91;4997454;28;20029;-53
2023/06/20 08:56:17;;;;;;;3.20;2.95;;;;;;;32.08;40.42;100925.38;4989419;28;20057;-56
2023/06/20 08:58:42;;;;;;;5.35;3.05;;;;;;;32.21;39.41;100934.25;4990502;28;20496;-53
2023/06/20 09:01:08;;;;;;;3.60;3.33;;;;;;;32.07;40.03;100925.63;4990982;28;20077;-55
2023/06/20 09:03:35;;;;;;;36.03;6.55;;;;;;;32.22;41.03;100924.94;4993673;28;20031;-56
2023/06/20 09:06:00;;;;;;;5.38;3.20;;;;;;;32.43;39.19;100921.28;4990601;28;20033;-55
2023/06/20 09:08:35;;;;;;;3.40;2.90;;;;;;;32.65;39.40;100923.13;4990254;28;20030;-55
2023/06/20 09:11:10;;;;;;;3.58;3.05;;;;;;;32.84;38.73;100929.03;4991281;28;20049;-54
2023/06/20 09:13:36;;;;;;;4.82;3.22;;;;;;;33.08;38.40;100929.47;4993618;28;20209;-55
2023/06/20 09:16:09;;;;;;;3.83;3.15;;;;;;;33.19;38.48;100930.38;5011999;28;20041;-53
2023/06/20 09:18:35;;;;;;;5.32;3.47;;;;;;;33.04;38.20;100927.50;5007435;28;20041;-53
2023/06/20 09:21:02;;;;;;;4.93;3.45;;;;;;;32.93;38.37;100934.91;4996221;28;20026;-53
2023/06/20 09:23:31;;;;;;;4.15;3.28;;;;;;;32.59;38.41;100936.00;4997011;28;20089;-54
2023/06/20 09:25:57;;;;;;;4.13;3.00;;;;;;;32.59;39.27;100944.25;4991114;28;20030;-54
2023/06/20 09:28:23;;;;;;;4.65;2.75;;;;;;;32.70;38.41;100944.34;4990553;28;20030;-53
2023/06/20 09:30:48;;;;;;;3.65;3.25;;;;;;;32.99;38.00;100945.66;4990216;28;20395;-55
2023/06/20 09:33:15;;;;;;;4.38;3.20;;;;;;;33.27;37.79;100934.56;4990086;28;20027;-52
2023/06/20 09:35:40;;;;;;;3.05;2.85;;;;;;;33.32;37.16;100938.16;4991844;28;20026;-55
2023/06/20 09:38:06;;;;;;;5.65;3.40;;;;;;;33.63;37.58;100935.53;4991460;28;20365;-56
2023/06/20 09:40:40;;;;;;;61.42;11.38;;;;;;;33.78;36.69;100942.22;4989287;28;20023;-57
2023/06/20 09:43:06;;;;;;;3.63;3.30;;;;;;;33.89;35.48;100939.22;4990667;28;20038;-55
2023/06/20 09:45:31;;;;;;;3.50;3.20;;;;;;;33.74;35.83;100931.75;4991711;28;20022;-55
2023/06/20 09:47:58;;;;;;;6.35;3.45;;;;;;;33.77;36.36;100932.31;4990246;28;20022;-55
2023/06/20 09:50:27;;;;;;;3.40;2.95;;;;;;;34.19;36.58;100939.53;4991878;28;20032;-54
2023/06/20 09:53:01;;;;;;;34.33;4.95;;;;;;;34.50;35.11;100936.84;4990050;28;20037;-56
2023/06/20 09:55:27;;;;;;;7.38;2.95;;;;;;;34.64;34.35;100929.66;4992862;28;20026;-56
2023/06/20 09:57:58;;;;;;;2.78;2.50;;;;;;;34.89;34.20;100931.59;4992872;28;20375;-54
2023/06/20 10:00:26;;;;;;;3.75;2.50;;;;;;;35.09;33.35;100933.47;4995843;28;20443;-56
2023/06/20 10:02:53;;;;;;;5.15;2.60;;;;;;;35.28;32.53;100936.47;4992750;28;20038;-57
2023/06/20 10:05:20;;;;;;;3.78;2.33;;;;;;;35.15;32.62;100931.53;4998768;28;20057;-54
2023/06/20 10:07:47;;;;;;;3.17;2.40;;;;;;;35.04;33.10;100927.94;4994265;28;20100;-53
2023/06/20 10:10:15;;;;;;;3.90;2.10;;;;;;;34.94;33.14;100934.34;4996976;28;20026;-56
2023/06/20 10:12:42;;;;;;;2.80;2.60;;;;;;;34.94;33.35;100922.47;4994427;28;20297;-55
2023/06/20 10:15:09;;;;;;;4.50;3.00;;;;;;;34.92;33.07;100921.91;4997343;28;20026;-57
2023/06/20 10:17:39;;;;;;;3.83;2.60;;;;;;;34.68;34.21;100911.44;4993315;28;20034;-56
2023/06/20 10:20:08;;;;;;;6.82;2.50;;;;;;;34.51;33.65;100908.16;4990737;28;20059;-55
2023/06/20 10:22:34;;;;;;;3.85;2.28;;;;;;;34.67;34.02;100893.22;5000530;28;20520;-56
2023/06/20 10:25:03;;;;;;;2.28;2.00;;;;;;;34.85;32.94;100900.13;5000981;28;20077;-53
2023/06/20 10:27:28;;;;;;;3.08;2.20;;;;;;;35.17;32.97;100896.16;5003884;28;20033;-57
2023/06/20 10:29:53;;;;;;;4.53;2.00;;;;;;;35.37;32.55;100889.75;5004546;28;20034;-55
2023/06/20 10:32:19;;;;;;;3.13;1.77;;;;;;;35.65;31.95;100891.00;5003697;28;20133;-54
2023/06/20 10:34:44;;;;;;;4.80;2.00;;;;;;;35.76;31.35;100875.22;4999104;28;20077;-56
2023/06/20 10:37:16;;;;;;;1.92;1.83;;;;;;;35.80;30.93;100876.28;5001582;28;20380;-53
2023/06/20 10:39:57;;;;;;;3.33;1.85;;;;;;;36.09;31.33;100879.13;5005182;28;20042;-57
2023/06/20 10:42:35;;;;;;;3.17;2.05;;;;;;;36.18;31.02;100873.81;4997028;28;20069;-56
2023/06/20 10:45:16;;;;;;;;;;;;;;;36.70;31.68;100868.63;5004204;28;20053;-55
2023/06/20 10:47:42;;;;;;;2.00;1.60;;;;;;;36.83;29.33;100869.91;5003738;28;19914;-55
2023/06/20 10:50:08;;;;;;;2.25;1.90;;;;;;;36.46;29.31;100874.16;5002339;28;20042;-57
2023/06/20 10:52:35;;;;;;;3.85;1.92;;;;;;;36.74;29.80;100871.66;5003569;28;20541;-52
2023/06/20 10:55:01;;;;;;;3.95;1.70;;;;;;;36.82;28.94;100869.09;5002844;28;20410;-54
2023/06/20 10:57:28;;;;;;;2.75;1.98;;;;;;;36.91;28.93;100860.97;4999933;28;20018;-56
2023/06/20 10:59:53;;;;;;;4.38;1.70;;;;;;;37.03;29.06;100860.53;5004950;28;20034;-55
2023/06/20 11:02:19;;;;;;;3.67;1.90;;;;;;;36.99;28.58;100854.78;5001728;28;20033;-56
2023/06/20 11:04:47;;;;;;;5.00;2.08;;;;;;;37.57;28.76;100845.44;5005937;28;20109;-54
2023/06/20 11:07:13;;;;;;;36.88;6.70;;;;;;;37.53;28.42;100840.78;5001313;28;20489;-54
2023/06/20 11:09:39;;;;;;;17.95;4.00;;;;;;;37.78;28.55;100844.34;5001176;28;20118;-57
2023/06/20 11:12:07;;;;;;;1.85;1.60;;;;;;;37.73;25.46;100846.06;4993261;28;20475;-54
2023/06/20 11:14:32;;;;;;;;;;;;;;;38.32;27.67;100845.66;4997957;28;20078;-53
2023/06/20 11:16:58;;;;;;;4.47;1.80;;;;;;;37.38;26.78;100836.31;4999988;28;19922;-56